createdAt,value
2023-02-06T00:00:43.226Z,13.88
2023-02-06T00:03:45.790Z,14.27
2023-02-06T00:06:47.245Z,13.57
2023-02-06T00:09:49.749Z,12.93
2023-02-06T00:12:51.797Z,13.98
2023-02-06T00:15:54.571Z,12.63
2023-02-06T00:18:58.781Z,14.52
2023-02-06T00:22:00.374Z,12.43
2023-02-06T00:25:03.446Z,11.10
2023-02-06T00:28:05.668Z,12.50
2023-02-06T00:31:09.288Z,14.95
2023-02-06T00:34:10.842Z,15.00
2023-02-06T00:37:13.439Z,14.07
2023-02-06T00:40:14.757Z,14.67
2023-02-06T00:43:18.460Z,12.65
2023-02-06T00:46:20.159Z,12.40
2023-02-06T00:49:22.708Z,13.70
2023-02-06T00:52:25.237Z,11.80
2023-02-06T00:55:27.812Z,17.43
2023-02-06T00:58:29.878Z,13.18
2023-02-06T01:01:32.579Z,15.48
2023-02-06T01:04:33.855Z,15.18
2023-02-06T01:07:39.197Z,14.67
2023-02-06T01:10:42.244Z,13.17
2023-02-06T01:13:44.154Z,14.32
2023-02-06T01:16:46.707Z,15.20
2023-02-06T01:19:49.280Z,14.07
2023-02-06T01:22:52.437Z,15.33
2023-02-06T01:25:53.723Z,14.32
2023-02-06T01:28:57.453Z,14.73
2023-02-06T01:32:00.002Z,13.73
2023-02-06T01:35:01.362Z,15.07
2023-02-06T01:38:03.932Z,12.98
2023-02-06T01:41:06.858Z,17.70
2023-02-06T01:44:15.398Z,14.95
2023-02-06T01:47:18.995Z,15.53
2023-02-06T01:50:20.304Z,15.47
2023-02-06T01:53:24.073Z,15.25
2023-02-06T01:56:30.659Z,17.70
2023-02-06T01:59:33.811Z,14.25
2023-02-06T02:02:39.972Z,13.97
2023-02-06T02:05:43.311Z,14.13
2023-02-06T02:12:08.250Z,13.05
2023-02-06T02:15:11.590Z,14.02
2023-02-06T02:18:36.285Z,13.60
2023-02-06T02:22:02.618Z,13.80
2023-02-06T02:25:27.803Z,13.13
2023-02-06T02:29:05.412Z,14.98
2023-02-06T02:32:37.458Z,13.20
2023-02-06T02:35:51.764Z,13.73
2023-02-06T02:39:03.039Z,15.37
2023-02-06T02:42:12.765Z,15.40
2023-02-06T02:45:20.678Z,16.17
2023-02-06T02:48:24.851Z,14.60
2023-02-06T02:51:28.131Z,12.70
2023-02-06T02:54:29.888Z,14.27
2023-02-06T02:57:33.224Z,14.98
2023-02-06T03:00:40.838Z,16.10
2023-02-06T03:03:45.652Z,13.65
2023-02-06T03:07:04.400Z,15.23
2023-02-06T03:10:12.835Z,13.90
2023-02-06T03:13:23.641Z,14.23
2023-02-06T03:16:32.888Z,15.07
2023-02-06T03:19:40.951Z,14.35
2023-02-06T03:22:47.008Z,17.03
2023-02-06T03:25:53.914Z,16.97
2023-02-06T03:29:00.850Z,15.98
2023-02-06T03:32:08.160Z,15.30
2023-02-06T03:35:17.175Z,16.25
2023-02-06T03:38:19.167Z,14.30
2023-02-06T03:41:25.952Z,15.43
2023-02-06T03:44:33.591Z,14.75
2023-02-06T03:47:39.164Z,15.32
2023-02-06T03:50:43.894Z,14.73
2023-02-06T03:53:50.684Z,16.00
2023-02-06T03:56:55.624Z,14.67
2023-02-06T03:59:57.042Z,13.85
2023-02-06T04:02:59.637Z,18.92
2023-02-06T04:06:02.354Z,14.88
2023-02-06T04:09:04.481Z,16.90
2023-02-06T04:12:07.592Z,16.80
2023-02-06T04:15:09.584Z,13.68
2023-02-06T04:18:12.080Z,15.13
2023-02-06T04:21:13.355Z,14.70
2023-02-06T04:24:16.653Z,13.23
2023-02-06T04:27:18.090Z,12.13
2023-02-06T04:30:20.726Z,11.55
2023-02-06T04:33:22.018Z,11.52
2023-02-06T04:36:24.671Z,11.95
2023-02-06T04:39:28.546Z,11.43
2023-02-06T04:42:31.138Z,10.90
2023-02-06T04:45:32.457Z,11.85
2023-02-06T04:48:33.923Z,13.15
2023-02-06T04:51:37.046Z,12.40
2023-02-06T04:54:40.249Z,11.73
2023-02-06T04:57:42.976Z,10.53
2023-02-06T05:00:44.267Z,11.73
2023-02-06T05:03:46.937Z,12.02
2023-02-06T05:06:48.270Z,9.88
2023-02-06T05:09:50.265Z,10.87
2023-02-06T05:12:52.866Z,13.53
2023-02-06T05:15:54.244Z,12.43
2023-02-06T05:18:57.943Z,14.45
2023-02-06T05:21:59.276Z,14.25
2023-02-06T05:25:02.675Z,11.77
2023-02-06T05:28:06.619Z,12.43
2023-02-06T05:31:09.481Z,13.82
2023-02-06T05:34:10.795Z,13.15
2023-02-06T05:37:13.761Z,12.32
2023-02-06T05:40:17.417Z,14.73
2023-02-06T05:43:20.022Z,12.60
2023-02-06T05:46:21.358Z,14.05
2023-02-06T05:49:23.961Z,13.20
2023-02-06T05:52:25.248Z,16.55
2023-02-06T06:02:10.699Z,11.60
2023-02-06T06:05:12.026Z,15.00
2023-02-06T06:08:15.521Z,11.07
2023-02-06T06:11:17.481Z,14.20
2023-02-06T06:14:18.865Z,12.40
2023-02-06T06:17:20.962Z,11.68
2023-02-06T06:20:23.992Z,14.13
2023-02-06T06:23:25.292Z,11.75
2023-02-06T06:26:27.539Z,15.07
2023-02-06T06:29:29.194Z,12.50
2023-02-06T06:32:30.482Z,13.40
2023-02-06T06:35:32.198Z,12.88
2023-02-06T06:38:34.046Z,11.75
2023-02-06T06:41:45.643Z,12.98
2023-02-06T06:44:48.192Z,11.70
2023-02-06T06:47:49.492Z,15.30
2023-02-06T06:50:52.028Z,13.00
2023-02-06T06:53:53.296Z,12.15
2023-02-06T06:56:56.513Z,13.27
2023-02-06T06:59:58.164Z,14.70
2023-02-06T07:02:59.498Z,13.90
2023-02-06T07:06:00.896Z,15.27
2023-02-06T07:09:02.197Z,15.10
2023-02-06T07:12:05.146Z,14.70
2023-02-06T07:15:07.276Z,13.00
2023-02-06T07:18:11.378Z,14.90
2023-02-06T07:21:15.091Z,13.32
2023-02-06T07:24:16.377Z,13.75
2023-02-06T07:27:18.900Z,15.90
2023-02-06T07:30:21.843Z,15.57
2023-02-06T07:33:23.158Z,18.10
2023-02-06T07:36:25.691Z,17.15
2023-02-06T07:39:27.244Z,15.50
2023-02-06T07:42:29.207Z,14.90
2023-02-06T07:45:31.077Z,14.80
2023-02-06T07:48:32.638Z,14.07
2023-02-06T07:51:35.705Z,15.10
2023-02-06T07:54:37.021Z,15.48
2023-02-06T07:57:40.221Z,18.05
2023-02-06T08:00:41.650Z,15.50
2023-02-06T08:03:42.985Z,19.57
2023-02-06T08:06:46.075Z,14.82
2023-02-06T08:09:47.648Z,17.63
2023-02-06T08:12:50.801Z,16.08
2023-02-06T08:15:52.321Z,14.75
2023-02-06T08:18:54.857Z,15.77
2023-02-06T08:21:56.311Z,15.48
2023-02-06T08:24:57.912Z,15.80
2023-02-06T08:28:00.181Z,14.70
2023-02-06T08:31:08.498Z,16.23
2023-02-06T08:34:13.840Z,14.60
2023-02-06T08:37:15.359Z,14.13
2023-02-06T08:40:17.270Z,14.50
2023-02-06T08:43:19.245Z,17.38
2023-02-06T08:46:22.332Z,14.85
2023-02-06T08:49:26.115Z,14.60
2023-02-06T08:52:28.581Z,16.73
2023-02-06T08:55:30.113Z,15.88
2023-02-06T08:58:33.985Z,15.57
2023-02-06T09:01:36.629Z,14.57
2023-02-06T09:04:39.552Z,16.40
2023-02-06T09:07:41.134Z,15.82
2023-02-06T09:10:43.805Z,15.80
2023-02-06T09:13:49.133Z,17.02
2023-02-06T09:16:51.974Z,17.52
2023-02-06T09:19:53.272Z,16.87
2023-02-06T09:22:54.522Z,19.80
2023-02-06T09:25:55.872Z,17.23
2023-02-06T09:29:00.788Z,17.65
2023-02-06T09:32:02.107Z,19.30
2023-02-06T09:35:05.178Z,18.90
2023-02-06T09:38:06.466Z,19.40
2023-02-06T09:41:17.034Z,18.77
2023-02-06T09:44:23.635Z,19.55
2023-02-06T09:47:28.428Z,21.58
2023-02-06T09:50:40.645Z,20.87
2023-02-06T09:53:54.410Z,23.45
2023-02-06T09:57:06.358Z,23.90
2023-02-06T10:00:17.938Z,22.52
2023-02-06T10:03:48.588Z,20.65
2023-02-06T10:06:57.200Z,21.53
2023-02-06T10:10:03.784Z,19.98
2023-02-06T10:13:13.166Z,21.20
2023-02-06T10:16:32.291Z,23.10
2023-02-06T10:19:42.911Z,20.88
2023-02-06T10:22:51.797Z,22.13
2023-02-06T10:26:03.501Z,23.58
2023-02-06T10:29:06.205Z,19.73
2023-02-06T10:32:21.593Z,21.13
2023-02-06T10:35:32.515Z,18.98
2023-02-06T10:38:51.992Z,16.70
2023-02-06T10:42:02.200Z,17.13
2023-02-06T10:45:57.326Z,17.35
2023-02-06T10:49:04.484Z,17.60
2023-02-06T10:52:17.844Z,17.38
2023-02-06T10:55:22.985Z,16.87
2023-02-06T10:58:28.355Z,15.15
2023-02-06T11:01:35.251Z,15.68
2023-02-06T11:04:39.923Z,16.05
2023-02-06T11:07:44.655Z,19.60
2023-02-06T11:10:46.236Z,16.90
2023-02-06T11:13:50.312Z,20.27
2023-02-06T11:16:53.688Z,17.38
2023-02-06T11:20:04.455Z,16.35
2023-02-06T11:23:15.719Z,17.00
2023-02-06T11:26:20.222Z,15.97
2023-02-06T11:29:24.946Z,15.63
2023-02-06T11:32:35.374Z,20.27
2023-02-06T11:35:40.657Z,22.95
2023-02-06T11:38:55.408Z,21.58
2023-02-06T11:41:59.297Z,17.97
2023-02-06T11:45:18.119Z,16.95
2023-02-06T11:48:38.657Z,17.92
2023-02-06T11:51:52.004Z,20.27
2023-02-06T11:54:55.239Z,16.90
2023-02-06T11:58:07.987Z,16.77
2023-02-06T12:01:18.331Z,18.88
2023-02-06T12:04:25.391Z,18.52
2023-02-06T12:07:32.912Z,17.23
2023-02-06T12:10:40.171Z,18.20
2023-02-06T12:13:47.221Z,17.50
2023-02-06T12:16:50.452Z,18.92
2023-02-06T12:20:09.274Z,16.00
2023-02-06T12:23:18.793Z,17.02
2023-02-06T12:26:24.594Z,20.98
2023-02-06T12:29:29.947Z,21.47
2023-02-06T12:32:34.325Z,19.13
2023-02-06T12:35:45.086Z,20.95
2023-02-06T12:38:52.535Z,19.20
2023-02-06T12:42:10.907Z,17.63
2023-02-06T12:45:28.218Z,20.97
2023-02-06T12:48:38.151Z,19.17
2023-02-06T12:51:50.762Z,19.73
2023-02-06T12:55:00.010Z,21.67
2023-02-06T12:58:02.481Z,21.02
2023-02-06T13:01:33.033Z,19.37
2023-02-06T13:04:38.053Z,21.48
2023-02-06T13:07:49.328Z,22.60
2023-02-06T13:11:02.127Z,20.83
2023-02-06T13:14:06.867Z,24.17
2023-02-06T13:17:12.098Z,21.97
2023-02-06T13:20:16.122Z,23.65
2023-02-06T13:23:22.884Z,21.98
2023-02-06T13:26:57.867Z,21.77
2023-02-06T13:30:37.136Z,22.40
2023-02-06T13:33:41.691Z,22.37
2023-02-06T13:36:49.786Z,23.35
2023-02-06T13:40:18.389Z,22.00
2023-02-06T13:43:26.805Z,21.67
2023-02-06T13:46:51.607Z,26.25
2023-02-06T13:50:28.698Z,23.23
2023-02-06T13:53:46.269Z,20.10
2023-02-06T13:57:11.323Z,19.90
2023-02-06T14:00:17.346Z,21.70
2023-02-06T14:03:25.081Z,22.98
2023-02-06T14:06:46.896Z,20.53
2023-02-06T14:10:20.617Z,22.05
2023-02-06T14:13:45.660Z,22.08
2023-02-06T14:16:55.315Z,18.63
2023-02-06T14:20:08.417Z,24.25
2023-02-06T14:23:20.018Z,18.10
2023-02-06T14:26:32.135Z,23.80
2023-02-06T14:29:44.809Z,22.92
2023-02-06T14:32:57.800Z,20.50
2023-02-06T14:36:14.438Z,19.40
2023-02-06T14:39:40.831Z,19.33
2023-02-06T14:42:44.973Z,21.10
2023-02-06T14:46:05.532Z,19.65
2023-02-06T14:49:16.054Z,19.67
2023-02-06T14:52:21.603Z,18.50
2023-02-06T14:55:34.576Z,19.80
2023-02-06T14:58:36.098Z,21.80
2023-02-06T15:01:37.563Z,19.50
2023-02-06T15:04:46.836Z,20.98
2023-02-06T15:07:57.151Z,19.85
2023-02-06T15:11:01.454Z,17.53
2023-02-06T15:14:05.787Z,22.13
2023-02-06T15:17:08.150Z,17.75
2023-02-06T15:20:25.732Z,18.10
2023-02-06T15:23:43.346Z,16.88
2023-02-06T15:26:53.597Z,18.67
2023-02-06T15:29:55.671Z,20.50
2023-02-06T15:32:58.160Z,19.02
2023-02-06T15:36:02.578Z,16.30
2023-02-06T15:39:06.993Z,19.17
2023-02-06T15:42:10.279Z,18.03
2023-02-06T15:45:19.544Z,18.65
2023-02-06T15:48:25.262Z,19.45
2023-02-06T15:51:29.371Z,17.73
2023-02-06T15:54:33.775Z,18.23
2023-02-06T15:57:40.305Z,19.20
2023-02-06T16:00:43.199Z,15.48
2023-02-06T16:03:45.333Z,16.83
2023-02-06T16:06:58.486Z,17.98
2023-02-06T16:10:06.244Z,16.38
2023-02-06T16:13:12.206Z,15.47
2023-02-06T16:16:20.036Z,16.67
2023-02-06T16:19:38.189Z,17.67
2023-02-06T16:22:39.598Z,14.00
2023-02-06T16:25:41.828Z,14.98
2023-02-06T16:28:54.547Z,15.83
2023-02-06T16:31:59.562Z,17.75
2023-02-06T16:38:21.782Z,15.40
2023-02-06T16:41:29.836Z,16.83
2023-02-06T16:44:44.081Z,16.77
2023-02-06T16:47:47.803Z,17.55
2023-02-06T16:50:49.241Z,14.85
2023-02-06T16:53:52.662Z,14.45
2023-02-06T16:56:56.985Z,13.40
2023-02-06T16:59:58.539Z,13.50
2023-02-06T17:03:00.227Z,16.08
2023-02-06T17:06:02.659Z,16.83
2023-02-06T17:09:08.324Z,13.68
2023-02-06T17:12:13.119Z,14.98
2023-02-06T17:15:15.560Z,14.37
2023-02-06T17:18:18.210Z,14.35
2023-02-06T17:21:28.954Z,15.89
2023-02-06T17:24:30.236Z,16.20
2023-02-06T17:27:32.438Z,16.23
2023-02-06T17:30:35.414Z,17.00
2023-02-06T17:33:38.178Z,16.25
2023-02-06T17:36:41.158Z,16.17
2023-02-06T17:39:43.527Z,15.88
2023-02-06T17:42:46.670Z,14.27
2023-02-06T17:45:49.079Z,16.05
2023-02-06T17:48:51.448Z,17.33
2023-02-06T17:51:53.767Z,17.60
2023-02-06T17:54:55.121Z,15.68
2023-02-06T17:57:58.149Z,17.90
2023-02-06T18:01:00.653Z,17.17
2023-02-06T18:04:03.378Z,17.23
2023-02-06T18:07:05.794Z,16.87
2023-02-06T18:10:07.980Z,19.15
2023-02-06T18:13:10.992Z,21.42
2023-02-06T18:16:14.554Z,21.02
2023-02-06T18:19:19.330Z,21.02
2023-02-06T18:22:22.679Z,20.13
2023-02-06T18:25:25.041Z,20.42
2023-02-06T18:28:28.168Z,20.90
2023-02-06T18:31:32.493Z,20.75
2023-02-06T18:34:35.483Z,21.63
2023-02-06T18:37:37.990Z,22.30
2023-02-06T18:40:42.103Z,23.95
2023-02-06T18:43:45.115Z,24.42
2023-02-06T18:46:46.490Z,20.00
2023-02-06T18:49:47.973Z,23.15
2023-02-06T18:52:50.268Z,24.57
2023-02-06T18:55:58.122Z,25.20
2023-02-06T18:59:01.332Z,24.95
2023-02-06T19:02:04.102Z,24.58
2023-02-06T19:05:07.151Z,24.20
2023-02-06T19:08:08.432Z,23.77
2023-02-06T19:11:10.281Z,26.33
2023-02-06T19:14:16.086Z,24.08
2023-02-06T19:17:17.371Z,28.63
2023-02-06T19:23:39.839Z,26.27
2023-02-06T19:26:42.844Z,27.40
2023-02-06T19:29:45.058Z,23.40
2023-02-06T19:32:49.175Z,22.48
2023-02-06T19:35:51.468Z,24.08
2023-02-06T19:38:56.052Z,24.33
2023-02-06T19:41:57.325Z,22.02
2023-02-06T19:45:00.594Z,22.08
2023-02-06T19:48:01.931Z,23.15
2023-02-06T19:54:25.595Z,21.23
2023-02-06T19:57:28.264Z,27.90
2023-02-06T20:00:31.485Z,32.58
2023-02-06T20:03:33.158Z,38.42
2023-02-06T20:06:38.531Z,41.33
2023-02-06T20:09:41.991Z,36.97
2023-02-06T20:12:44.783Z,36.17
2023-02-06T20:19:09.941Z,23.85
2023-02-06T20:22:12.582Z,27.73
2023-02-06T20:25:14.045Z,22.27
2023-02-06T20:28:16.760Z,21.17
2023-02-06T20:31:19.960Z,24.80
2023-02-06T20:34:21.764Z,27.13
2023-02-06T20:37:23.740Z,28.25
2023-02-06T20:40:25.040Z,30.37
2023-02-06T20:43:26.488Z,29.60
2023-02-06T20:46:31.817Z,29.92
2023-02-06T20:49:33.355Z,30.10
2023-02-06T20:52:36.575Z,26.08
2023-02-06T20:55:40.897Z,28.50
2023-02-06T20:58:43.119Z,29.42
2023-02-06T21:01:45.249Z,27.77
2023-02-06T21:04:47.809Z,25.75
2023-02-06T21:07:50.359Z,27.42
2023-02-06T21:10:52.397Z,34.90
2023-02-06T21:13:53.726Z,33.35
2023-02-06T21:16:56.121Z,31.05
2023-02-06T21:19:57.521Z,32.20
2023-02-06T21:23:00.043Z,32.40
2023-02-06T21:26:01.510Z,25.87
2023-02-06T21:29:03.764Z,35.78
2023-02-06T21:32:13.726Z,29.58
2023-02-06T21:35:16.915Z,32.90
2023-02-06T21:38:19.955Z,35.47
2023-02-06T21:41:21.296Z,34.53
2023-02-06T21:44:23.833Z,37.05
2023-02-06T21:47:25.845Z,39.38
2023-02-06T21:50:28.534Z,35.95
2023-02-06T21:53:31.053Z,35.40
2023-02-06T21:56:32.372Z,36.93
2023-02-06T21:59:34.905Z,37.30
2023-02-06T22:02:37.687Z,38.55
2023-02-06T22:05:40.597Z,39.47
2023-02-06T22:08:43.629Z,34.05
2023-02-06T22:11:46.560Z,31.83
2023-02-06T22:14:47.878Z,34.00
2023-02-06T22:17:49.833Z,34.75
2023-02-06T22:21:03.598Z,36.08
2023-02-06T22:24:08.126Z,29.00
2023-02-06T22:27:09.674Z,34.63
2023-02-06T22:30:13.283Z,33.55
2023-02-06T22:33:15.269Z,32.95
2023-02-06T22:36:20.202Z,36.72
2023-02-06T22:39:22.760Z,37.83
2023-02-06T22:42:24.081Z,33.80
2023-02-06T22:45:26.648Z,37.03
2023-02-06T22:48:28.758Z,30.45
2023-02-06T22:51:31.353Z,32.33
2023-02-06T22:54:32.617Z,33.05
2023-02-06T22:57:37.642Z,32.90
2023-02-06T23:04:02.895Z,36.55
2023-02-06T23:07:05.906Z,33.15
2023-02-06T23:10:08.772Z,32.92
2023-02-06T23:13:10.066Z,30.73
2023-02-06T23:16:12.996Z,32.30
2023-02-06T23:19:15.284Z,34.80
2023-02-06T23:22:24.939Z,32.48
2023-02-06T23:25:27.589Z,30.25
2023-02-06T23:28:29.167Z,27.23
2023-02-06T23:31:32.401Z,30.90
2023-02-06T23:34:34.369Z,30.08
2023-02-06T23:37:36.939Z,31.20
2023-02-06T23:40:39.682Z,33.03
2023-02-06T23:43:42.213Z,28.20
2023-02-06T23:46:44.761Z,30.10
2023-02-06T23:49:46.722Z,29.42
2023-02-06T23:52:49.545Z,28.50
2023-02-06T23:55:52.277Z,28.67
2023-02-06T23:58:54.619Z,30.97
